sensor_id;sensor_type;location;lat;lon;timestamp;pressure;altitude;pressure_sealevel;temperature;humidity
12636;BME280;6383;50.830;7.210;2022-12-07T00:01:38;100970.34;;;6.50;91.37
12636;BME280;6383;50.830;7.210;2022-12-07T00:04:09;100963.84;;;6.51;90.82
12636;BME280;6383;50.830;7.210;2022-12-07T00:06:40;100969.53;;;6.55;90.93
12636;BME280;6383;50.830;7.210;2022-12-07T00:09:12;100974.66;;;6.56;91.62
12636;BME280;6383;50.830;7.210;2022-12-07T00:11:42;100958.44;;;6.56;91.40
12636;BME280;6383;50.830;7.210;2022-12-07T00:14:13;100964.41;;;6.58;91.47
12636;BME280;6383;50.830;7.210;2022-12-07T00:16:42;100967.66;;;6.60;90.74
12636;BME280;6383;50.830;7.210;2022-12-07T00:19:12;100961.19;;;6.61;91.59
12636;BME280;6383;50.830;7.210;2022-12-07T00:21:42;100947.09;;;6.59;91.22
12636;BME280;6383;50.830;7.210;2022-12-07T00:24:12;100965.50;;;6.62;91.42
12636;BME280;6383;50.830;7.210;2022-12-07T00:26:42;100962.53;;;6.64;90.72
12636;BME280;6383;50.830;7.210;2022-12-07T00:29:15;100950.91;;;6.63;90.75
12636;BME280;6383;50.830;7.210;2022-12-07T00:31:45;100953.63;;;6.63;91.50
12636;BME280;6383;50.830;7.210;2022-12-07T00:34:15;100954.69;;;6.62;91.47
12636;BME280;6383;50.830;7.210;2022-12-07T00:36:43;100947.66;;;6.61;90.65
12636;BME280;6383;50.830;7.210;2022-12-07T00:39:14;100951.44;;;6.60;90.62
12636;BME280;6383;50.830;7.210;2022-12-07T00:41:42;100939.00;;;6.59;91.30
12636;BME280;6383;50.830;7.210;2022-12-07T00:44:09;100942.25;;;6.61;91.34
12636;BME280;6383;50.830;7.210;2022-12-07T00:46:37;100940.34;;;6.62;90.94
12636;BME280;6383;50.830;7.210;2022-12-07T00:49:05;100937.66;;;6.62;91.76
12636;BME280;6383;50.830;7.210;2022-12-07T00:51:33;100934.44;;;6.65;91.53
12636;BME280;6383;50.830;7.210;2022-12-07T00:54:01;100933.34;;;6.66;91.71
12636;BME280;6383;50.830;7.210;2022-12-07T00:56:30;100940.09;;;6.68;91.66
12636;BME280;6383;50.830;7.210;2022-12-07T00:59:01;100930.09;;;6.69;91.28
12636;BME280;6383;50.830;7.210;2022-12-07T01:01:33;100928.19;;;6.69;91.67
12636;BME280;6383;50.830;7.210;2022-12-07T01:04:03;100929.00;;;6.70;91.49
12636;BME280;6383;50.830;7.210;2022-12-07T01:06:30;100934.41;;;6.70;91.00
12636;BME280;6383;50.830;7.210;2022-12-07T01:08:59;100934.16;;;6.71;90.95
12636;BME280;6383;50.830;7.210;2022-12-07T01:11:31;100928.75;;;6.71;91.96
12636;BME280;6383;50.830;7.210;2022-12-07T01:13:59;100926.84;;;6.72;91.60
12636;BME280;6383;50.830;7.210;2022-12-07T01:16:28;100925.53;;;6.75;92.09
12636;BME280;6383;50.830;7.210;2022-12-07T01:18:59;100932.81;;;6.74;91.46
12636;BME280;6383;50.830;7.210;2022-12-07T01:21:30;100934.44;;;6.75;92.11
12636;BME280;6383;50.830;7.210;2022-12-07T01:24:00;100929.03;;;6.75;92.12
12636;BME280;6383;50.830;7.210;2022-12-07T01:26:31;100928.78;;;6.77;91.25
12636;BME280;6383;50.830;7.210;2022-12-07T01:28:59;100927.69;;;6.78;91.47
12636;BME280;6383;50.830;7.210;2022-12-07T01:31:29;100936.91;;;6.77;91.33
12636;BME280;6383;50.830;7.210;2022-12-07T01:33:59;100942.31;;;6.77;91.53
12636;BME280;6383;50.830;7.210;2022-12-07T01:36:30;100936.34;;;6.75;91.71
12636;BME280;6383;50.830;7.210;2022-12-07T01:39:02;100943.13;;;6.77;91.40
12636;BME280;6383;50.830;7.210;2022-12-07T01:41:35;100938.53;;;6.78;91.67
12636;BME280;6383;50.830;7.210;2022-12-07T01:44:18;100934.19;;;6.77;91.75
12636;BME280;6383;50.830;7.210;2022-12-07T01:46:48;100939.34;;;6.78;91.33
12636;BME280;6383;50.830;7.210;2022-12-07T01:49:25;100940.16;;;6.79;90.94
12636;BME280;6383;50.830;7.210;2022-12-07T01:52:00;100933.94;;;6.78;92.02
12636;BME280;6383;50.830;7.210;2022-12-07T01:54:29;100941.22;;;6.78;91.87
12636;BME280;6383;50.830;7.210;2022-12-07T01:56:59;100935.56;;;6.79;91.08
12636;BME280;6383;50.830;7.210;2022-12-07T01:59:28;100932.03;;;6.79;92.17
12636;BME280;6383;50.830;7.210;2022-12-07T02:01:57;100927.69;;;6.78;90.80
12636;BME280;6383;50.830;7.210;2022-12-07T02:04:25;100927.97;;;6.76;91.93
12636;BME280;6383;50.830;7.210;2022-12-07T02:06:53;100917.97;;;6.77;90.75
12636;BME280;6383;50.830;7.210;2022-12-07T02:09:23;100918.47;;;6.73;90.89
12636;BME280;6383;50.830;7.210;2022-12-07T02:11:51;100922.00;;;6.74;91.51
12636;BME280;6383;50.830;7.210;2022-12-07T02:14:22;100913.06;;;6.73;91.66
12636;BME280;6383;50.830;7.210;2022-12-07T02:17:04;100902.78;;;6.70;91.35
12636;BME280;6383;50.830;7.210;2022-12-07T02:19:57;100906.56;;;6.69;90.84
12636;BME280;6383;50.830;7.210;2022-12-07T02:25:46;100906.28;;;6.71;91.13
12636;BME280;6383;50.830;7.210;2022-12-07T02:28:27;100904.41;;;6.71;91.62
12636;BME280;6383;50.830;7.210;2022-12-07T02:31:04;100909.28;;;6.75;91.46
12636;BME280;6383;50.830;7.210;2022-12-07T02:33:36;100910.66;;;6.77;91.40
12636;BME280;6383;50.830;7.210;2022-12-07T02:36:12;100911.47;;;6.78;91.97
12636;BME280;6383;50.830;7.210;2022-12-07T02:38:46;100907.69;;;6.79;91.43
12636;BME280;6383;50.830;7.210;2022-12-07T02:41:20;100904.44;;;6.77;90.91
12636;BME280;6383;50.830;7.210;2022-12-07T02:43:53;100906.31;;;6.76;91.95
12636;BME280;6383;50.830;7.210;2022-12-07T02:46:27;100906.59;;;6.75;92.04
12636;BME280;6383;50.830;7.210;2022-12-07T02:48:57;100903.88;;;6.75;91.89
12636;BME280;6383;50.830;7.210;2022-12-07T02:51:29;100901.44;;;6.73;91.31
12636;BME280;6383;50.830;7.210;2022-12-07T02:53:59;100903.06;;;6.74;91.40
12636;BME280;6383;50.830;7.210;2022-12-07T02:56:32;100894.13;;;6.73;91.75
12636;BME280;6383;50.830;7.210;2022-12-07T02:59:13;100896.03;;;6.73;91.16
12636;BME280;6383;50.830;7.210;2022-12-07T03:01:50;100890.63;;;6.73;92.08
12636;BME280;6383;50.830;7.210;2022-12-07T03:04:32;100899.00;;;6.71;91.12
12636;BME280;6383;50.830;7.210;2022-12-07T03:07:06;100897.91;;;6.72;91.61
12636;BME280;6383;50.830;7.210;2022-12-07T03:09:43;100895.22;;;6.72;92.40
12636;BME280;6383;50.830;7.210;2022-12-07T03:12:16;100897.91;;;6.72;91.51
12636;BME280;6383;50.830;7.210;2022-12-07T03:14:50;100888.72;;;6.73;92.33
12636;BME280;6383;50.830;7.210;2022-12-07T03:17:25;100894.13;;;6.73;91.73
12636;BME280;6383;50.830;7.210;2022-12-07T03:19:58;100896.31;;;6.77;92.35
12636;BME280;6383;50.830;7.210;2022-12-07T03:22:29;100900.66;;;6.78;92.04
12636;BME280;6383;50.830;7.210;2022-12-07T03:25:04;100900.66;;;6.78;91.74
12636;BME280;6383;50.830;7.210;2022-12-07T03:27:36;100902.53;;;6.77;92.40
12636;BME280;6383;50.830;7.210;2022-12-07T03:30:07;100900.66;;;6.78;91.61
12636;BME280;6383;50.830;7.210;2022-12-07T03:32:41;100901.72;;;6.77;92.42
12636;BME280;6383;50.830;7.210;2022-12-07T03:35:15;100891.16;;;6.75;92.25
12636;BME280;6383;50.830;7.210;2022-12-07T03:37:49;100892.50;;;6.72;92.53
12636;BME280;6383;50.830;7.210;2022-12-07T03:40:22;100895.22;;;6.72;91.80
12636;BME280;6383;50.830;7.210;2022-12-07T03:42:53;100885.47;;;6.71;91.68
12636;BME280;6383;50.830;7.210;2022-12-07T03:45:28;100893.31;;;6.73;91.65
12636;BME280;6383;50.830;7.210;2022-12-07T03:48:05;100891.69;;;6.72;92.16
12636;BME280;6383;50.830;7.210;2022-12-07T03:50:43;100891.44;;;6.73;92.06
12636;BME280;6383;50.830;7.210;2022-12-07T03:53:15;100897.41;;;6.76;91.90
12636;BME280;6383;50.830;7.210;2022-12-07T03:55:46;100899.28;;;6.75;92.56
12636;BME280;6383;50.830;7.210;2022-12-07T03:58:17;100895.50;;;6.76;91.80
12636;BME280;6383;50.830;7.210;2022-12-07T04:00:48;100895.25;;;6.78;91.50
12636;BME280;6383;50.830;7.210;2022-12-07T04:03:19;100893.06;;;6.75;91.78
12636;BME280;6383;50.830;7.210;2022-12-07T04:05:49;100887.09;;;6.72;92.13
12636;BME280;6383;50.830;7.210;2022-12-07T04:08:16;100890.06;;;6.71;91.31
12636;BME280;6383;50.830;7.210;2022-12-07T04:10:45;100892.78;;;6.71;92.54
12636;BME280;6383;50.830;7.210;2022-12-07T04:13:14;100895.75;;;6.69;91.72
12636;BME280;6383;50.830;7.210;2022-12-07T04:15:41;100900.34;;;6.69;91.62
12636;BME280;6383;50.830;7.210;2022-12-07T04:18:09;100893.31;;;6.68;92.50
12636;BME280;6383;50.830;7.210;2022-12-07T04:20:39;100901.97;;;6.70;91.84
12636;BME280;6383;50.830;7.210;2022-12-07T04:23:08;100895.75;;;6.69;91.72
12636;BME280;6383;50.830;7.210;2022-12-07T04:25:37;100896.00;;;6.68;92.67
12636;BME280;6383;50.830;7.210;2022-12-07T04:28:06;100899.00;;;6.66;91.46
12636;BME280;6383;50.830;7.210;2022-12-07T04:30:35;100901.41;;;6.68;91.81
12636;BME280;6383;50.830;7.210;2022-12-07T04:33:04;100897.13;;;6.67;92.20
12636;BME280;6383;50.830;7.210;2022-12-07T04:35:31;100897.13;;;6.67;92.49
12636;BME280;6383;50.830;7.210;2022-12-07T04:38:02;100893.31;;;6.68;92.08
12636;BME280;6383;50.830;7.210;2022-12-07T04:40:30;100892.53;;;6.67;91.81
12636;BME280;6383;50.830;7.210;2022-12-07T04:42:57;100894.13;;;6.68;91.90
12636;BME280;6383;50.830;7.210;2022-12-07T04:45:26;100894.94;;;6.69;92.67
12636;BME280;6383;50.830;7.210;2022-12-07T04:47:55;100896.56;;;6.70;92.74
12636;BME280;6383;50.830;7.210;2022-12-07T04:50:24;100893.84;;;6.70;92.49
12636;BME280;6383;50.830;7.210;2022-12-07T04:52:52;100889.25;;;6.70;92.76
12636;BME280;6383;50.830;7.210;2022-12-07T04:55:22;100891.69;;;6.72;92.04
12636;BME280;6383;50.830;7.210;2022-12-07T04:57:51;100889.81;;;6.72;92.76
12636;BME280;6383;50.830;7.210;2022-12-07T05:00:21;100885.47;;;6.71;91.67
12636;BME280;6383;50.830;7.210;2022-12-07T05:02:49;100889.25;;;6.70;92.60
12636;BME280;6383;50.830;7.210;2022-12-07T05:05:18;100892.78;;;6.71;91.67
12636;BME280;6383;50.830;7.210;2022-12-07T05:07:45;100887.91;;;6.73;92.98
12636;BME280;6383;50.830;7.210;2022-12-07T05:10:13;100886.84;;;6.74;92.80
12636;BME280;6383;50.830;7.210;2022-12-07T05:12:43;100887.66;;;6.75;91.76
12636;BME280;6383;50.830;7.210;2022-12-07T05:15:13;100886.84;;;6.74;92.31
12636;BME280;6383;50.830;7.210;2022-12-07T05:17:42;100891.97;;;6.76;91.82
12636;BME280;6383;50.830;7.210;2022-12-07T05:20:11;100901.19;;;6.75;92.71
12636;BME280;6383;50.830;7.210;2022-12-07T05:22:39;100906.06;;;6.78;92.11
12636;BME280;6383;50.830;7.210;2022-12-07T05:25:08;100897.94;;;6.78;92.89
12636;BME280;6383;50.830;7.210;2022-12-07T05:27:37;100898.75;;;6.78;92.76
12636;BME280;6383;50.830;7.210;2022-12-07T05:30:08;100894.72;;;6.81;91.85
12636;BME280;6383;50.830;7.210;2022-12-07T05:32:38;100902.00;;;6.80;92.03
12636;BME280;6383;50.830;7.210;2022-12-07T05:35:08;100896.88;;;6.79;91.78
12636;BME280;6383;50.830;7.210;2022-12-07T05:37:36;100900.38;;;6.79;91.86
12636;BME280;6383;50.830;7.210;2022-12-07T05:40:06;100897.13;;;6.77;92.48
12636;BME280;6383;50.830;7.210;2022-12-07T05:42:35;100895.50;;;6.76;92.18
12636;BME280;6383;50.830;7.210;2022-12-07T05:45:05;100891.72;;;6.77;92.29
12636;BME280;6383;50.830;7.210;2022-12-07T05:47:35;100888.19;;;6.77;92.52
12636;BME280;6383;50.830;7.210;2022-12-07T05:50:05;100888.19;;;6.77;91.66
12636;BME280;6383;50.830;7.210;2022-12-07T05:52:34;100881.44;;;6.74;91.93
12636;BME280;6383;50.830;7.210;2022-12-07T05:55:03;100881.44;;;6.74;91.47
12636;BME280;6383;50.830;7.210;2022-12-07T05:57:32;100883.59;;;6.72;92.21
12636;BME280;6383;50.830;7.210;2022-12-07T05:59:59;100880.88;;;6.72;91.99
12636;BME280;6383;50.830;7.210;2022-12-07T06:02:26;100880.06;;;6.71;92.02
12636;BME280;6383;50.830;7.210;2022-12-07T06:04:56;100887.09;;;6.72;91.72
12636;BME280;6383;50.830;7.210;2022-12-07T06:07:24;100880.06;;;6.71;91.75
12636;BME280;6383;50.830;7.210;2022-12-07T06:09:54;100883.59;;;6.72;92.62
12636;BME280;6383;50.830;7.210;2022-12-07T06:12:21;100891.44;;;6.73;91.89
12636;BME280;6383;50.830;7.210;2022-12-07T06:15:10;100885.22;;;6.73;92.08
12636;BME280;6383;50.830;7.210;2022-12-07T06:17:39;100894.13;;;6.73;92.29
12636;BME280;6383;50.830;7.210;2022-12-07T06:20:10;100896.03;;;6.73;91.90
12636;BME280;6383;50.830;7.210;2022-12-07T06:22:39;100890.63;;;6.73;91.73
12636;BME280;6383;50.830;7.210;2022-12-07T06:25:07;100897.66;;;6.74;91.59
12636;BME280;6383;50.830;7.210;2022-12-07T06:27:36;100888.19;;;6.71;91.62
12636;BME280;6383;50.830;7.210;2022-12-07T06:30:06;100892.78;;;6.71;91.78
12636;BME280;6383;50.830;7.210;2022-12-07T06:32:36;100895.22;;;6.72;92.08
12636;BME280;6383;50.830;7.210;2022-12-07T06:35:06;100897.91;;;6.72;92.02
12636;BME280;6383;50.830;7.210;2022-12-07T06:37:35;100893.59;;;6.71;91.73
12636;BME280;6383;50.830;7.210;2022-12-07T06:40:05;100899.00;;;6.71;91.66
12636;BME280;6383;50.830;7.210;2022-12-07T06:42:34;100905.47;;;6.70;91.87
12636;BME280;6383;50.830;7.210;2022-12-07T06:45:02;100910.63;;;6.72;91.41
12636;BME280;6383;50.830;7.210;2022-12-07T06:47:31;100908.19;;;6.70;91.53
12636;BME280;6383;50.830;7.210;2022-12-07T06:49:58;100901.16;;;6.69;91.80
12636;BME280;6383;50.830;7.210;2022-12-07T06:52:27;100906.56;;;6.69;91.10
12636;BME280;6383;50.830;7.210;2022-12-07T06:54:56;100915.50;;;6.70;91.00
12636;BME280;6383;50.830;7.210;2022-12-07T06:57:24;100918.19;;;6.70;91.97
12636;BME280;6383;50.830;7.210;2022-12-07T06:59:53;100907.38;;;6.70;91.29
12636;BME280;6383;50.830;7.210;2022-12-07T07:02:21;100915.22;;;6.71;91.72
12636;BME280;6383;50.830;7.210;2022-12-07T07:04:50;100908.44;;;6.69;91.75
12636;BME280;6383;50.830;7.210;2022-12-07T07:07:19;100904.13;;;6.68;91.43
12636;BME280;6383;50.830;7.210;2022-12-07T07:09:47;100908.44;;;6.69;90.67
12636;BME280;6383;50.830;7.210;2022-12-07T07:12:17;100909.53;;;6.68;91.57
12636;BME280;6383;50.830;7.210;2022-12-07T07:14:46;100913.34;;;6.67;90.93
12636;BME280;6383;50.830;7.210;2022-12-07T07:17:14;100926.06;;;6.66;90.76
12636;BME280;6383;50.830;7.210;2022-12-07T07:19:43;100916.31;;;6.65;90.67
12636;BME280;6383;50.830;7.210;2022-12-07T07:22:11;100920.63;;;6.66;91.42
12636;BME280;6383;50.830;7.210;2022-12-07T07:24:40;100926.06;;;6.66;90.63
12636;BME280;6383;50.830;7.210;2022-12-07T07:27:09;100927.13;;;6.65;90.53
12636;BME280;6383;50.830;7.210;2022-12-07T07:29:40;100924.41;;;6.65;91.17
12636;BME280;6383;50.830;7.210;2022-12-07T07:32:09;100930.09;;;6.64;90.89
12636;BME280;6383;50.830;7.210;2022-12-07T07:34:38;100931.44;;;6.61;89.91
12636;BME280;6383;50.830;7.210;2022-12-07T07:37:06;100924.41;;;6.60;90.86
12636;BME280;6383;50.830;7.210;2022-12-07T07:39:38;100917.34;;;6.59;90.55
12636;BME280;6383;50.830;7.210;2022-12-07T07:42:06;100921.13;;;6.58;91.12
12636;BME280;6383;50.830;7.210;2022-12-07T07:44:34;100924.91;;;6.57;89.90
12636;BME280;6383;50.830;7.210;2022-12-07T07:47:04;100928.97;;;6.55;90.28
12636;BME280;6383;50.830;7.210;2022-12-07T07:49:32;100932.47;;;6.55;89.96
12636;BME280;6383;50.830;7.210;2022-12-07T07:52:01;100923.03;;;6.53;89.89
12636;BME280;6383;50.830;7.210;2022-12-07T07:54:31;100922.47;;;6.51;90.05
12636;BME280;6383;50.830;7.210;2022-12-07T07:56:59;100927.88;;;6.51;90.26
12636;BME280;6383;50.830;7.210;2022-12-07T07:59:28;100931.66;;;6.50;91.04
12636;BME280;6383;50.830;7.210;2022-12-07T08:01:58;100933.28;;;6.51;91.18
12636;BME280;6383;50.830;7.210;2022-12-07T08:04:27;100940.31;;;6.52;90.87
12636;BME280;6383;50.830;7.210;2022-12-07T08:06:55;100943.84;;;6.52;90.73
12636;BME280;6383;50.830;7.210;2022-12-07T08:09:25;100941.13;;;6.52;90.40
12636;BME280;6383;50.830;7.210;2022-12-07T08:11:54;100936.25;;;6.54;90.44
12636;BME280;6383;50.830;7.210;2022-12-07T08:14:24;100934.63;;;6.53;90.40
12636;BME280;6383;50.830;7.210;2022-12-07T08:16:55;100930.84;;;6.54;91.30
12636;BME280;6383;50.830;7.210;2022-12-07T08:19:22;100931.41;;;6.56;91.15
12636;BME280;6383;50.830;7.210;2022-12-07T08:21:53;100930.31;;;6.57;91.33
12636;BME280;6383;50.830;7.210;2022-12-07T08:24:21;100927.63;;;6.57;91.56
12636;BME280;6383;50.830;7.210;2022-12-07T08:26:51;100926.53;;;6.58;90.89
12636;BME280;6383;50.830;7.210;2022-12-07T08:29:20;100928.16;;;6.59;91.24
12636;BME280;6383;50.830;7.210;2022-12-07T08:31:48;100926.03;;;6.61;91.47
12636;BME280;6383;50.830;7.210;2022-12-07T08:34:18;100938.47;;;6.62;91.53
12636;BME280;6383;50.830;7.210;2022-12-07T08:36:47;100930.09;;;6.64;91.71
12636;BME280;6383;50.830;7.210;2022-12-07T08:39:17;100942.28;;;6.66;90.95
12636;BME280;6383;50.830;7.210;2022-12-07T08:41:45;100931.16;;;6.68;90.77
12636;BME280;6383;50.830;7.210;2022-12-07T08:44:14;100940.66;;;6.70;90.81
12636;BME280;6383;50.830;7.210;2022-12-07T08:46:46;100937.94;;;6.70;90.68
12636;BME280;6383;50.830;7.210;2022-12-07T08:49:17;100938.50;;;6.72;90.60
12636;BME280;6383;50.830;7.210;2022-12-07T08:51:46;100938.50;;;6.72;90.99
12636;BME280;6383;50.830;7.210;2022-12-07T08:54:17;100943.09;;;6.72;90.80
12636;BME280;6383;50.830;7.210;2022-12-07T08:56:47;100934.72;;;6.73;90.78
12636;BME280;6383;50.830;7.210;2022-12-07T08:59:17;100933.38;;;6.76;90.84
12636;BME280;6383;50.830;7.210;2022-12-07T09:01:49;100935.00;;;6.77;91.02
12636;BME280;6383;50.830;7.210;2022-12-07T09:04:17;100937.44;;;6.79;91.47
12636;BME280;6383;50.830;7.210;2022-12-07T09:06:46;100939.06;;;6.80;92.11
12636;BME280;6383;50.830;7.210;2022-12-07T09:09:13;100939.63;;;6.82;92.32
12636;BME280;6383;50.830;7.210;2022-12-07T09:11:43;100943.16;;;6.82;91.65
12636;BME280;6383;50.830;7.210;2022-12-07T09:14:13;100937.44;;;6.84;91.33
12636;BME280;6383;50.830;7.210;2022-12-07T09:16:41;100936.09;;;6.86;92.01
12636;BME280;6383;50.830;7.210;2022-12-07T09:19:10;100935.03;;;6.87;91.59
12636;BME280;6383;50.830;7.210;2022-12-07T09:21:40;100942.31;;;6.87;91.23
12636;BME280;6383;50.830;7.210;2022-12-07T09:24:09;100943.69;;;6.89;91.59
12636;BME280;6383;50.830;7.210;2022-12-07T09:26:38;100944.50;;;6.90;92.74
12636;BME280;6383;50.830;7.210;2022-12-07T09:29:09;100949.13;;;6.94;91.69
12636;BME280;6383;50.830;7.210;2022-12-07T09:31:38;100949.13;;;6.94;91.64
12636;BME280;6383;50.830;7.210;2022-12-07T09:34:07;100947.50;;;6.93;91.25
12636;BME280;6383;50.830;7.210;2022-12-07T09:36:35;100948.88;;;6.96;91.59
12636;BME280;6383;50.830;7.210;2022-12-07T09:39:03;100951.31;;;6.97;92.49
12636;BME280;6383;50.830;7.210;2022-12-07T09:41:32;100950.19;;;6.98;91.68
12636;BME280;6383;50.830;7.210;2022-12-07T09:44:05;100947.50;;;6.98;91.40
12636;BME280;6383;50.830;7.210;2022-12-07T09:46:36;100952.63;;;7.00;92.19
12636;BME280;6383;50.830;7.210;2022-12-07T09:49:12;100944.53;;;7.00;91.22
12636;BME280;6383;50.830;7.210;2022-12-07T09:51:46;100940.72;;;7.01;91.79
12636;BME280;6383;50.830;7.210;2022-12-07T09:54:16;100938.84;;;7.01;91.36
12636;BME280;6383;50.830;7.210;2022-12-07T09:56:44;100941.56;;;7.01;91.65
12636;BME280;6383;50.830;7.210;2022-12-07T09:59:16;100942.63;;;7.00;91.43
12636;BME280;6383;50.830;7.210;2022-12-07T10:01:49;100936.13;;;7.01;91.75
12636;BME280;6383;50.830;7.210;2022-12-07T10:04:20;100943.44;;;7.01;91.23
12636;BME280;6383;50.830;7.210;2022-12-07T10:06:50;100927.72;;;6.98;90.77
12636;BME280;6383;50.830;7.210;2022-12-07T10:09:20;100933.97;;;6.98;91.27
12636;BME280;6383;50.830;7.210;2022-12-07T10:11:59;100921.00;;;6.95;91.35
12636;BME280;6383;50.830;7.210;2022-12-07T10:14:29;100919.34;;;6.94;90.81
12636;BME280;6383;50.830;7.210;2022-12-07T10:17:00;100922.88;;;6.95;91.34
12636;BME280;6383;50.830;7.210;2022-12-07T10:19:30;100927.22;;;6.96;90.64
12636;BME280;6383;50.830;7.210;2022-12-07T10:22:09;100924.25;;;6.97;91.01
12636;BME280;6383;50.830;7.210;2022-12-07T10:24:39;100923.44;;;6.97;91.25
12636;BME280;6383;50.830;7.210;2022-12-07T10:27:18;100913.41;;;6.97;90.94
12636;BME280;6383;50.830;7.210;2022-12-07T10:29:49;100917.22;;;6.96;91.10
12636;BME280;6383;50.830;7.210;2022-12-07T10:32:33;100910.97;;;6.96;91.21
12636;BME280;6383;50.830;7.210;2022-12-07T10:35:20;100908.78;;;6.98;90.67
12636;BME280;6383;50.830;7.210;2022-12-07T10:37:51;100903.66;;;7.01;91.41
12636;BME280;6383;50.830;7.210;2022-12-07T10:40:27;100910.97;;;7.06;91.83
12636;BME280;6383;50.830;7.210;2022-12-07T10:43:05;100905.59;;;7.11;91.98
12636;BME280;6383;50.830;7.210;2022-12-07T10:45:41;100895.00;;;7.15;91.92
12636;BME280;6383;50.830;7.210;2022-12-07T10:48:19;100900.72;;;7.18;91.49
12636;BME280;6383;50.830;7.210;2022-12-07T10:50:59;100893.41;;;7.19;90.98
12636;BME280;6383;50.830;7.210;2022-12-07T10:53:44;100888.81;;;7.19;90.38
12636;BME280;6383;50.830;7.210;2022-12-07T10:56:29;100885.56;;;7.17;90.13
12636;BME280;6383;50.830;7.210;2022-12-07T10:59:21;100891.50;;;7.19;90.29
12636;BME280;6383;50.830;7.210;2022-12-07T11:02:01;100885.03;;;7.20;90.24
12636;BME280;6383;50.830;7.210;2022-12-07T11:04:43;100879.59;;;7.20;90.65
12636;BME280;6383;50.830;7.210;2022-12-07T11:07:24;100876.63;;;7.22;90.12
12636;BME280;6383;50.830;7.210;2022-12-07T11:10:05;100873.66;;;7.23;90.17
12636;BME280;6383;50.830;7.210;2022-12-07T11:12:45;100872.03;;;7.22;90.25
12636;BME280;6383;50.830;7.210;2022-12-07T11:15:21;100862.28;;;7.21;89.29
12636;BME280;6383;50.830;7.210;2022-12-07T11:17:56;100864.19;;;7.21;89.14
12636;BME280;6383;50.830;7.210;2022-12-07T11:20:37;100858.50;;;7.22;89.36
12636;BME280;6383;50.830;7.210;2022-12-07T11:23:16;100848.22;;;7.24;89.66
12636;BME280;6383;50.830;7.210;2022-12-07T11:25:51;100844.44;;;7.25;89.04
12636;BME280;6383;50.830;7.210;2022-12-07T11:28:24;100848.47;;;7.23;88.97
12636;BME280;6383;50.830;7.210;2022-12-07T11:31:03;100846.06;;;7.26;89.62
12636;BME280;6383;50.830;7.210;2022-12-07T11:33:41;100836.28;;;7.30;89.64
12636;BME280;6383;50.830;7.210;2022-12-07T11:36:29;100833.03;;;7.33;90.03
12636;BME280;6383;50.830;7.210;2022-12-07T11:39:02;100833.84;;;7.34;89.46
12636;BME280;6383;50.830;7.210;2022-12-07T11:41:34;100832.75;;;7.35;89.22
12636;BME280;6383;50.830;7.210;2022-12-07T11:44:06;100830.06;;;7.35;88.92
12636;BME280;6383;50.830;7.210;2022-12-07T11:46:46;100829.25;;;7.34;87.79
12636;BME280;6383;50.830;7.210;2022-12-07T11:49:20;100822.75;;;7.35;88.07
12636;BME280;6383;50.830;7.210;2022-12-07T11:51:57;100821.94;;;7.35;87.79
12636;BME280;6383;50.830;7.210;2022-12-07T11:54:35;100821.13;;;7.34;88.55
12636;BME280;6383;50.830;7.210;2022-12-07T11:57:12;100814.91;;;7.34;88.49
12636;BME280;6383;50.830;7.210;2022-12-07T11:59:45;100813.81;;;7.35;88.15
12636;BME280;6383;50.830;7.210;2022-12-07T12:02:22;100811.66;;;7.37;88.55
12636;BME280;6383;50.830;7.210;2022-12-07T12:04:55;100810.84;;;7.41;88.08
12636;BME280;6383;50.830;7.210;2022-12-07T12:07:27;100811.63;;;7.42;87.99
12636;BME280;6383;50.830;7.210;2022-12-07T12:10:00;100810.28;;;7.39;88.09
12636;BME280;6383;50.830;7.210;2022-12-07T12:12:53;100805.97;;;7.38;87.94
12636;BME280;6383;50.830;7.210;2022-12-07T12:15:39;100794.31;;;7.38;86.85
12636;BME280;6383;50.830;7.210;2022-12-07T12:18:37;100805.97;;;7.38;87.09
12636;BME280;6383;50.830;7.210;2022-12-07T12:21:10;100803.53;;;7.37;86.87
12636;BME280;6383;50.830;7.210;2022-12-07T12:23:44;100803.53;;;7.37;87.60
12636;BME280;6383;50.830;7.210;2022-12-07T12:26:16;100800.56;;;7.38;87.52
12636;BME280;6383;50.830;7.210;2022-12-07T12:28:52;100807.84;;;7.38;87.21
12636;BME280;6383;50.830;7.210;2022-12-07T12:31:36;100801.63;;;7.37;86.55
12636;BME280;6383;50.830;7.210;2022-12-07T12:34:30;100796.50;;;7.36;87.37
12636;BME280;6383;50.830;7.210;2022-12-07T12:37:00;100802.72;;;7.36;86.61
12636;BME280;6383;50.830;7.210;2022-12-07T12:39:30;100791.88;;;7.36;86.15
12636;BME280;6383;50.830;7.210;2022-12-07T12:42:00;100793.50;;;7.37;86.44
12636;BME280;6383;50.830;7.210;2022-12-07T12:45:04;100799.19;;;7.36;86.85
12636;BME280;6383;50.830;7.210;2022-12-07T12:50:32;100790.25;;;7.35;86.55
12636;BME280;6383;50.830;7.210;2022-12-07T12:53:19;100785.94;;;7.34;86.09
12636;BME280;6383;50.830;7.210;2022-12-07T12:56:20;100783.75;;;7.31;86.05
12636;BME280;6383;50.830;7.210;2022-12-07T12:59:21;100784.56;;;7.32;85.48
12636;BME280;6383;50.830;7.210;2022-12-07T13:01:50;100782.94;;;7.31;85.04
12636;BME280;6383;50.830;7.210;2022-12-07T13:07:53;100793.00;;;7.25;85.46
12636;BME280;6383;50.830;7.210;2022-12-07T13:10:46;100789.75;;;7.23;84.86
12636;BME280;6383;50.830;7.210;2022-12-07T13:13:35;100789.75;;;7.23;84.96
12636;BME280;6383;50.830;7.210;2022-12-07T13:22:43;100770.78;;;7.23;85.71
12636;BME280;6383;50.830;7.210;2022-12-07T13:25:18;100773.78;;;7.27;85.45
12636;BME280;6383;50.830;7.210;2022-12-07T13:27:50;100773.47;;;7.28;85.19
12636;BME280;6383;50.830;7.210;2022-12-07T13:30:22;100770.50;;;7.30;86.03
12636;BME280;6383;50.830;7.210;2022-12-07T13:32:52;100765.63;;;7.32;85.44
12636;BME280;6383;50.830;7.210;2022-12-07T13:35:34;100768.06;;;7.33;86.14
12636;BME280;6383;50.830;7.210;2022-12-07T13:38:13;100763.19;;;7.35;85.56
12636;BME280;6383;50.830;7.210;2022-12-07T13:40:59;100757.78;;;7.35;86.02
12636;BME280;6383;50.830;7.210;2022-12-07T13:43:27;100759.41;;;7.36;85.22
12636;BME280;6383;50.830;7.210;2022-12-07T13:45:59;100762.09;;;7.36;84.81
12636;BME280;6383;50.830;7.210;2022-12-07T13:48:32;100760.22;;;7.37;84.33
12636;BME280;6383;50.830;7.210;2022-12-07T13:51:02;100757.22;;;7.38;84.27
12636;BME280;6383;50.830;7.210;2022-12-07T13:53:33;100758.03;;;7.39;84.81